Sweetwater, Nevada
Current Conditions -  °F | °C
As of 6:52 PM on Wednesday 26 Nov 2014 (Local Time) from KBAN Reporting Station
Clear Clear  
Wind Chill:   Ceiling: Unl
Heat Index:   Visibility: NA
Dew Point: -5°   Wind: 3mph
Humidity: 39%   Direction: NA
Pressure: 30.43"   Gusts: NA
Location:  38.7596°N, 119.34°W
Report Text: KBAN 270252Z AUTO VRB03KT CLR 08/M05 A3043 RMK AO2 SLP306 T00831050 50004 $
Loading
Personal Weather Stations






























Interactive Weather Map New forecast layout! Learn more

10-Day Weather Forecast

Advertisements
Track Severe Weather on mobile